sensor_id;sensor_type;location;lat;lon;timestamp;pressure;altitude;pressure_sealevel;temperature;humidity
77877;BME280;67251;50.844;7.978;2023-03-01T00:02:06;100009.25;;;-8.53;92.14
77877;BME280;67251;50.844;7.978;2023-03-01T00:04:32;100010.28;;;-8.34;92.35
77877;BME280;67251;50.844;7.978;2023-03-01T00:06:57;100003.19;;;-8.29;92.34
77877;BME280;67251;50.844;7.978;2023-03-01T00:09:23;100009.38;;;-8.33;91.87
77877;BME280;67251;50.844;7.978;2023-03-01T00:11:48;100016.63;;;-8.41;91.77
77877;BME280;67251;50.844;7.978;2023-03-01T00:14:14;100014.19;;;-8.45;91.75
77877;BME280;67251;50.844;7.978;2023-03-01T00:16:43;100016.66;;;-8.42;91.84
77877;BME280;67251;50.844;7.978;2023-03-01T00:19:12;100024.78;;;-8.28;92.08
77877;BME280;67251;50.844;7.978;2023-03-01T00:21:38;100018.31;;;-8.40;91.84
77877;BME280;67251;50.844;7.978;2023-03-01T00:24:03;100013.66;;;-8.55;91.63
77877;BME280;67251;50.844;7.978;2023-03-01T00:26:29;100013.06;;;-8.63;92.13
77877;BME280;67251;50.844;7.978;2023-03-01T00:28:56;100014.44;;;-8.53;92.38
77877;BME280;67251;50.844;7.978;2023-03-01T00:31:27;100019.31;;;-8.44;92.49
77877;BME280;67251;50.844;7.978;2023-03-01T00:33:56;100018.06;;;-8.34;92.62
77877;BME280;67251;50.844;7.978;2023-03-01T00:36:23;100018.44;;;-8.19;92.69
77877;BME280;67251;50.844;7.978;2023-03-01T00:38:49;100018.59;;;-8.24;92.75
77877;BME280;67251;50.844;7.978;2023-03-01T00:41:16;100016.63;;;-8.17;92.74
77877;BME280;67251;50.844;7.978;2023-03-01T00:43:42;100014.97;;;-8.18;92.55
77877;BME280;67251;50.844;7.978;2023-03-01T00:46:14;100012.78;;;-8.31;92.49
77877;BME280;67251;50.844;7.978;2023-03-01T00:48:40;100012.22;;;-8.39;92.42
77877;BME280;67251;50.844;7.978;2023-03-01T00:53:34;100008.84;;;-8.41;92.60
77877;BME280;67251;50.844;7.978;2023-03-01T00:56:00;100015.09;;;-8.46;92.27
77877;BME280;67251;50.844;7.978;2023-03-01T00:58:26;100004.88;;;-8.51;92.51
77877;BME280;67251;50.844;7.978;2023-03-01T01:00:51;100006.97;;;-8.62;92.64
77877;BME280;67251;50.844;7.978;2023-03-01T01:03:18;100000.50;;;-8.76;92.49
77877;BME280;67251;50.844;7.978;2023-03-01T01:05:43;100004.47;;;-8.90;92.59
77877;BME280;67251;50.844;7.978;2023-03-01T01:08:09;100005.72;;;-9.02;92.51
77877;BME280;67251;50.844;7.978;2023-03-01T01:10:34;100003.44;;;-9.11;92.65
77877;BME280;67251;50.844;7.978;2023-03-01T01:13:00;100000.63;;;-9.05;93.01
77877;BME280;67251;50.844;7.978;2023-03-01T01:15:25;99997.25;;;-9.07;93.09
77877;BME280;67251;50.844;7.978;2023-03-01T01:17:51;99999.56;;;-8.99;93.16
77877;BME280;67251;50.844;7.978;2023-03-01T01:20:16;99986.47;;;-8.95;93.43
77877;BME280;67251;50.844;7.978;2023-03-01T01:22:41;99990.75;;;-8.94;93.57
77877;BME280;67251;50.844;7.978;2023-03-01T01:25:07;99988.50;;;-8.78;93.42
77877;BME280;67251;50.844;7.978;2023-03-01T01:27:33;99987.75;;;-8.82;93.58
77877;BME280;67251;50.844;7.978;2023-03-01T01:29:59;99989.50;;;-8.82;93.50
77877;BME280;67251;50.844;7.978;2023-03-01T01:32:24;99980.25;;;-8.64;94.03
77877;BME280;67251;50.844;7.978;2023-03-01T01:34:49;99986.81;;;-8.54;93.61
77877;BME280;67251;50.844;7.978;2023-03-01T01:37:15;99979.03;;;-8.54;93.90
77877;BME280;67251;50.844;7.978;2023-03-01T01:39:40;99987.34;;;-8.69;93.45
77877;BME280;67251;50.844;7.978;2023-03-01T01:42:06;99977.59;;;-8.88;93.29
77877;BME280;67251;50.844;7.978;2023-03-01T01:44:34;99978.19;;;-9.06;93.35
77877;BME280;67251;50.844;7.978;2023-03-01T01:47:02;99967.44;;;-9.20;93.46
77877;BME280;67251;50.844;7.978;2023-03-01T01:55:42;99971.13;;;-9.01;93.50
77877;BME280;67251;50.844;7.978;2023-03-01T01:58:11;99972.44;;;-8.89;94.13
77877;BME280;67251;50.844;7.978;2023-03-01T02:00:38;99980.03;;;-8.83;93.80
77877;BME280;67251;50.844;7.978;2023-03-01T02:03:13;99973.25;;;-8.87;93.68
77877;BME280;67251;50.844;7.978;2023-03-01T02:05:45;99969.53;;;-9.05;93.87
77877;BME280;67251;50.844;7.978;2023-03-01T02:08:13;99977.19;;;-9.29;93.24
77877;BME280;67251;50.844;7.978;2023-03-01T02:10:40;99968.09;;;-9.42;93.51
77877;BME280;67251;50.844;7.978;2023-03-01T02:13:06;99956.25;;;-9.49;93.58
77877;BME280;67251;50.844;7.978;2023-03-01T02:15:34;99968.09;;;-9.42;93.54
77877;BME280;67251;50.844;7.978;2023-03-01T02:18:01;99960.50;;;-9.20;93.88
77877;BME280;67251;50.844;7.978;2023-03-01T02:22:59;99970.41;;;-9.33;93.53
77877;BME280;67251;50.844;7.978;2023-03-01T02:28:01;99955.63;;;-9.57;93.81
77877;BME280;67251;50.844;7.978;2023-03-01T02:30:31;99953.38;;;-9.68;93.57
77877;BME280;67251;50.844;7.978;2023-03-01T02:32:58;99954.38;;;-9.72;93.82
77877;BME280;67251;50.844;7.978;2023-03-01T02:35:29;99949.69;;;-9.61;93.53
77877;BME280;67251;50.844;7.978;2023-03-01T02:37:56;99944.06;;;-9.45;94.09
77877;BME280;67251;50.844;7.978;2023-03-01T02:40:22;99938.28;;;-9.54;93.56
77877;BME280;67251;50.844;7.978;2023-03-01T02:42:53;99931.63;;;-9.62;93.90
77877;BME280;67251;50.844;7.978;2023-03-01T02:45:21;99935.00;;;-9.60;93.86
77877;BME280;67251;50.844;7.978;2023-03-01T02:47:46;99933.03;;;-9.52;93.72
77877;BME280;67251;50.844;7.978;2023-03-01T02:53:11;99933.44;;;-9.38;94.01
77877;BME280;67251;50.844;7.978;2023-03-01T02:55:38;99934.63;;;-9.48;93.66
77877;BME280;67251;50.844;7.978;2023-03-01T02:58:03;99933.31;;;-9.61;93.63
77877;BME280;67251;50.844;7.978;2023-03-01T03:00:33;99924.28;;;-9.76;93.70
77877;BME280;67251;50.844;7.978;2023-03-01T03:03:01;99922.63;;;-9.79;93.97
77877;BME280;67251;50.844;7.978;2023-03-01T03:05:29;99922.88;;;-9.58;93.94
77877;BME280;67251;50.844;7.978;2023-03-01T03:07:55;99921.69;;;-9.48;93.92
77877;BME280;67251;50.844;7.978;2023-03-01T03:10:23;99914.25;;;-9.32;94.39
77877;BME280;67251;50.844;7.978;2023-03-01T03:12:51;99904.03;;;-9.37;93.92
77877;BME280;67251;50.844;7.978;2023-03-01T03:15:17;99905.19;;;-9.45;93.87
77877;BME280;67251;50.844;7.978;2023-03-01T03:17:43;99901.81;;;-9.22;94.50
77877;BME280;67251;50.844;7.978;2023-03-01T03:20:11;99907.59;;;-9.14;94.49
77877;BME280;67251;50.844;7.978;2023-03-01T03:22:40;99920.25;;;-9.05;94.67
77877;BME280;67251;50.844;7.978;2023-03-01T03:25:09;99925.91;;;-9.19;94.64
77877;BME280;67251;50.844;7.978;2023-03-01T03:27:41;99922.16;;;-9.37;94.60
77877;BME280;67251;50.844;7.978;2023-03-01T03:30:11;99924.50;;;-9.56;94.36
77877;BME280;67251;50.844;7.978;2023-03-01T03:32:38;99924.84;;;-9.66;94.37
77877;BME280;67251;50.844;7.978;2023-03-01T03:35:05;99925.41;;;-9.85;94.08
77877;BME280;67251;50.844;7.978;2023-03-01T03:37:38;99915.59;;;-10.03;94.08
77877;BME280;67251;50.844;7.978;2023-03-01T03:40:22;99907.13;;;-10.08;94.08
77877;BME280;67251;50.844;7.978;2023-03-01T03:42:48;99900.84;;;-9.99;93.93
77877;BME280;67251;50.844;7.978;2023-03-01T03:45:14;99896.56;;;-10.00;94.18
77877;BME280;67251;50.844;7.978;2023-03-01T03:47:40;99901.31;;;-9.87;94.07
77877;BME280;67251;50.844;7.978;2023-03-01T03:50:05;99889.16;;;-9.85;94.44
77877;BME280;67251;50.844;7.978;2023-03-01T03:52:31;99881.50;;;-9.88;94.45
77877;BME280;67251;50.844;7.978;2023-03-01T03:54:56;99890.75;;;-9.81;94.11
77877;BME280;67251;50.844;7.978;2023-03-01T03:57:22;99891.13;;;-9.93;94.24
77877;BME280;67251;50.844;7.978;2023-03-01T03:59:47;99886.16;;;-9.99;93.56
77877;BME280;67251;50.844;7.978;2023-03-01T04:02:12;99889.72;;;-10.03;92.83
77877;BME280;67251;50.844;7.978;2023-03-01T04:04:38;99887.38;;;-9.83;93.06
77877;BME280;67251;50.844;7.978;2023-03-01T04:07:03;99881.31;;;-9.55;92.81
77877;BME280;67251;50.844;7.978;2023-03-01T04:09:28;99887.16;;;-9.48;92.72
77877;BME280;67251;50.844;7.978;2023-03-01T04:11:55;99887.84;;;-9.43;92.49
77877;BME280;67251;50.844;7.978;2023-03-01T04:14:20;99886.59;;;-9.58;91.97
77877;BME280;67251;50.844;7.978;2023-03-01T04:16:46;99890.97;;;-9.87;91.58
77877;BME280;67251;50.844;7.978;2023-03-01T04:19:11;99887.19;;;-10.05;91.77
77877;BME280;67251;50.844;7.978;2023-03-01T04:21:37;99888.44;;;-10.18;91.84
77877;BME280;67251;50.844;7.978;2023-03-01T04:24:03;99885.81;;;-10.16;91.68
77877;BME280;67251;50.844;7.978;2023-03-01T04:26:29;99885.44;;;-10.04;92.00
77877;BME280;67251;50.844;7.978;2023-03-01T04:28:54;99882.47;;;-10.20;91.54
77877;BME280;67251;50.844;7.978;2023-03-01T04:31:20;99875.81;;;-10.27;91.55
77877;BME280;67251;50.844;7.978;2023-03-01T04:33:51;99881.03;;;-10.28;91.58
77877;BME280;67251;50.844;7.978;2023-03-01T04:36:19;99872.88;;;-10.16;91.65
77877;BME280;67251;50.844;7.978;2023-03-01T04:38:45;99860.22;;;-10.24;91.35
77877;BME280;67251;50.844;7.978;2023-03-01T04:41:16;99864.81;;;-10.34;91.22
77877;BME280;67251;50.844;7.978;2023-03-01T04:43:42;99868.84;;;-10.53;91.22
77877;BME280;67251;50.844;7.978;2023-03-01T04:46:11;99867.81;;;-10.47;91.64
77877;BME280;67251;50.844;7.978;2023-03-01T04:48:38;99865.91;;;-10.14;91.95
77877;BME280;67251;50.844;7.978;2023-03-01T04:51:04;99861.81;;;-9.93;91.76
77877;BME280;67251;50.844;7.978;2023-03-01T04:53:31;99864.69;;;-10.02;91.49
77877;BME280;67251;50.844;7.978;2023-03-01T04:55:57;99873.81;;;-10.19;91.41
77877;BME280;67251;50.844;7.978;2023-03-01T04:58:24;99874.34;;;-10.36;91.21
77877;BME280;67251;50.844;7.978;2023-03-01T05:00:50;99870.25;;;-10.43;91.29
77877;BME280;67251;50.844;7.978;2023-03-01T05:03:16;99868.00;;;-10.53;91.48
77877;BME280;67251;50.844;7.978;2023-03-01T05:05:46;99870.97;;;-10.69;91.23
77877;BME280;67251;50.844;7.978;2023-03-01T05:08:13;99871.38;;;-10.83;91.21
77877;BME280;67251;50.844;7.978;2023-03-01T05:10:43;99877.13;;;-10.73;91.29
77877;BME280;67251;50.844;7.978;2023-03-01T05:13:09;99878.03;;;-10.74;91.18
77877;BME280;67251;50.844;7.978;2023-03-01T05:15:34;99873.94;;;-10.81;90.94
77877;BME280;67251;50.844;7.978;2023-03-01T05:18:02;99874.84;;;-10.84;91.07
77877;BME280;67251;50.844;7.978;2023-03-01T05:20:29;99864.91;;;-10.66;91.36
77877;BME280;67251;50.844;7.978;2023-03-01T05:22:57;99868.91;;;-10.56;91.22
77877;BME280;67251;50.844;7.978;2023-03-01T05:25:23;99877.72;;;-10.63;90.78
77877;BME280;67251;50.844;7.978;2023-03-01T05:27:49;99868.72;;;-10.79;90.90
77877;BME280;67251;50.844;7.978;2023-03-01T05:30:14;99866.31;;;-10.86;90.78
77877;BME280;67251;50.844;7.978;2023-03-01T05:32:42;99872.72;;;-10.68;91.42
77877;BME280;67251;50.844;7.978;2023-03-01T05:35:09;99864.38;;;-10.48;90.86
77877;BME280;67251;50.844;7.978;2023-03-01T05:37:44;99867.94;;;-10.52;90.75
77877;BME280;67251;50.844;7.978;2023-03-01T05:40:15;99860.69;;;-10.70;90.49
77877;BME280;67251;50.844;7.978;2023-03-01T05:42:54;99863.63;;;-10.83;90.63
77877;BME280;67251;50.844;7.978;2023-03-01T05:45:21;99866.53;;;-10.64;91.16
77877;BME280;67251;50.844;7.978;2023-03-01T05:47:49;99861.38;;;-10.34;91.08
77877;BME280;67251;50.844;7.978;2023-03-01T05:50:16;99863.84;;;-10.31;90.72
77877;BME280;67251;50.844;7.978;2023-03-01T05:52:45;99859.38;;;-10.24;90.76
77877;BME280;67251;50.844;7.978;2023-03-01T05:55:11;99856.22;;;-10.36;90.79
77877;BME280;67251;50.844;7.978;2023-03-01T05:57:36;99857.59;;;-10.52;90.72
77877;BME280;67251;50.844;7.978;2023-03-01T06:00:02;99855.59;;;-10.72;90.45
77877;BME280;67251;50.844;7.978;2023-03-01T06:02:28;99852.59;;;-10.89;90.79
77877;BME280;67251;50.844;7.978;2023-03-01T06:04:54;99846.00;;;-10.99;90.80
77877;BME280;67251;50.844;7.978;2023-03-01T06:07:20;99844.06;;;-10.91;90.88
77877;BME280;67251;50.844;7.978;2023-03-01T06:09:45;99848.69;;;-10.73;91.00
77877;BME280;67251;50.844;7.978;2023-03-01T06:12:10;99846.16;;;-10.45;90.73
77877;BME280;67251;50.844;7.978;2023-03-01T06:14:36;99847.25;;;-10.52;90.48
77877;BME280;67251;50.844;7.978;2023-03-01T06:17:01;99854.81;;;-10.46;91.32
77877;BME280;67251;50.844;7.978;2023-03-01T06:19:26;99857.97;;;-10.36;90.96
77877;BME280;67251;50.844;7.978;2023-03-01T06:21:52;99867.47;;;-10.37;91.19
77877;BME280;67251;50.844;7.978;2023-03-01T06:24:17;99860.63;;;-10.38;90.62
77877;BME280;67251;50.844;7.978;2023-03-01T06:26:42;99855.66;;;-10.45;90.70
77877;BME280;67251;50.844;7.978;2023-03-01T06:29:08;99852.28;;;-10.47;90.78
77877;BME280;67251;50.844;7.978;2023-03-01T06:31:34;99857.59;;;-10.52;91.04
77877;BME280;67251;50.844;7.978;2023-03-01T06:33:59;99857.78;;;-10.58;91.01
77877;BME280;67251;50.844;7.978;2023-03-01T06:36:24;99857.03;;;-10.63;90.84
77877;BME280;67251;50.844;7.978;2023-03-01T06:38:50;99865.88;;;-10.41;91.00
77877;BME280;67251;50.844;7.978;2023-03-01T06:41:15;99849.94;;;-10.27;90.89
77877;BME280;67251;50.844;7.978;2023-03-01T06:43:41;99857.88;;;-10.05;90.79
77877;BME280;67251;50.844;7.978;2023-03-01T06:46:06;99841.72;;;-9.85;91.11
77877;BME280;67251;50.844;7.978;2023-03-01T06:48:34;99849.34;;;-9.81;90.80
77877;BME280;67251;50.844;7.978;2023-03-01T06:51:00;99844.34;;;-9.87;90.72
77877;BME280;67251;50.844;7.978;2023-03-01T06:53:29;99847.09;;;-9.91;90.61
77877;BME280;67251;50.844;7.978;2023-03-01T06:55:57;99837.59;;;-9.91;90.64
77877;BME280;67251;50.844;7.978;2023-03-01T06:58:24;99835.59;;;-9.83;90.94
77877;BME280;67251;50.844;7.978;2023-03-01T07:00:49;99846.34;;;-9.68;91.02
77877;BME280;67251;50.844;7.978;2023-03-01T07:03:15;99839.66;;;-9.49;91.22
77877;BME280;67251;50.844;7.978;2023-03-01T07:05:40;99844.88;;;-9.24;90.96
77877;BME280;67251;50.844;7.978;2023-03-01T07:08:05;99850.34;;;-9.08;90.94
77877;BME280;67251;50.844;7.978;2023-03-01T07:10:31;99843.81;;;-8.93;91.09
77877;BME280;67251;50.844;7.978;2023-03-01T07:12:57;99846.59;;;-8.74;91.13
77877;BME280;67251;50.844;7.978;2023-03-01T07:15:24;99846.81;;;-8.57;91.15
77877;BME280;67251;50.844;7.978;2023-03-01T07:17:49;99836.81;;;-8.44;91.07
77877;BME280;67251;50.844;7.978;2023-03-01T07:20:17;99830.22;;;-8.31;91.04
77877;BME280;67251;50.844;7.978;2023-03-01T07:22:42;99829.56;;;-8.14;91.13
77877;BME280;67251;50.844;7.978;2023-03-01T07:25:09;99819.09;;;-6.29;91.51
77877;BME280;67251;50.844;7.978;2023-03-01T07:27:35;99811.47;;;-3.81;85.70
77877;BME280;67251;50.844;7.978;2023-03-01T07:30:01;99802.25;;;-1.86;79.91
77877;BME280;67251;50.844;7.978;2023-03-01T07:32:26;99797.69;;;-0.40;76.59
77877;BME280;67251;50.844;7.978;2023-03-01T07:34:52;99784.13;;;0.14;77.37
77877;BME280;67251;50.844;7.978;2023-03-01T07:37:17;99788.06;;;1.59;72.32
77877;BME280;67251;50.844;7.978;2023-03-01T07:39:42;99792.34;;;2.04;68.70
77877;BME280;67251;50.844;7.978;2023-03-01T07:42:08;99786.72;;;2.41;68.79
77877;BME280;67251;50.844;7.978;2023-03-01T07:44:33;99779.06;;;3.62;66.03
77877;BME280;67251;50.844;7.978;2023-03-01T07:47:00;99768.81;;;4.57;61.57
77877;BME280;67251;50.844;7.978;2023-03-01T07:49:25;99771.66;;;6.68;56.92
77877;BME280;67251;50.844;7.978;2023-03-01T07:51:52;99765.81;;;7.42;52.50
77877;BME280;67251;50.844;7.978;2023-03-01T07:54:17;99756.19;;;7.84;42.57
77877;BME280;67251;50.844;7.978;2023-03-01T07:56:43;99749.53;;;8.47;43.32
77877;BME280;67251;50.844;7.978;2023-03-01T07:59:09;99757.78;;;9.89;41.41
77877;BME280;67251;50.844;7.978;2023-03-01T08:01:34;99747.06;;;10.74;36.14
77877;BME280;67251;50.844;7.978;2023-03-01T08:03:59;99749.88;;;10.58;36.13
77877;BME280;67251;50.844;7.978;2023-03-01T08:06:25;99744.84;;;10.40;37.19
77877;BME280;67251;50.844;7.978;2023-03-01T08:08:50;99751.03;;;11.01;35.95
77877;BME280;67251;50.844;7.978;2023-03-01T08:11:16;99755.44;;;10.71;36.52
77877;BME280;67251;50.844;7.978;2023-03-01T08:13:42;99750.38;;;9.99;38.48
77877;BME280;67251;50.844;7.978;2023-03-01T08:16:11;99758.25;;;10.78;37.59
77877;BME280;67251;50.844;7.978;2023-03-01T08:18:37;99749.59;;;9.90;33.81
77877;BME280;67251;50.844;7.978;2023-03-01T08:21:07;99760.81;;;11.09;32.98
77877;BME280;67251;50.844;7.978;2023-03-01T08:23:33;99740.44;;;12.18;31.96
77877;BME280;67251;50.844;7.978;2023-03-01T08:26:09;99747.06;;;12.00;31.90
77877;BME280;67251;50.844;7.978;2023-03-01T08:28:35;99746.44;;;11.54;30.55
77877;BME280;67251;50.844;7.978;2023-03-01T08:31:01;99748.94;;;10.51;31.51
77877;BME280;67251;50.844;7.978;2023-03-01T08:33:27;99751.59;;;10.73;31.95
77877;BME280;67251;50.844;7.978;2023-03-01T08:35:52;99742.13;;;12.04;31.24
77877;BME280;67251;50.844;7.978;2023-03-01T08:38:17;99735.63;;;11.77;29.75
77877;BME280;67251;50.844;7.978;2023-03-01T08:40:43;99741.97;;;11.02;30.55
77877;BME280;67251;50.844;7.978;2023-03-01T08:43:08;99749.22;;;8.82;33.04
77877;BME280;67251;50.844;7.978;2023-03-01T08:45:34;99750.69;;;9.09;33.63
77877;BME280;67251;50.844;7.978;2023-03-01T08:47:59;99739.38;;;8.83;33.55
77877;BME280;67251;50.844;7.978;2023-03-01T08:50:24;99739.38;;;8.66;33.85
77877;BME280;67251;50.844;7.978;2023-03-01T08:52:50;99745.03;;;8.96;33.52
77877;BME280;67251;50.844;7.978;2023-03-01T08:55:16;99740.69;;;8.79;33.75
77877;BME280;67251;50.844;7.978;2023-03-01T08:57:43;99739.38;;;8.99;33.03
77877;BME280;67251;50.844;7.978;2023-03-01T09:00:09;99738.03;;;8.87;34.04
77877;BME280;67251;50.844;7.978;2023-03-01T09:02:36;99739.75;;;9.83;31.99
77877;BME280;67251;50.844;7.978;2023-03-01T09:05:02;99742.22;;;8.81;32.94
77877;BME280;67251;50.844;7.978;2023-03-01T09:07:27;99740.91;;;7.94;34.34
77877;BME280;67251;50.844;7.978;2023-03-01T09:09:53;99744.47;;;8.19;34.51
77877;BME280;67251;50.844;7.978;2023-03-01T09:12:19;99731.19;;;9.95;32.06
77877;BME280;67251;50.844;7.978;2023-03-01T09:14:45;99720.34;;;8.78;32.55
77877;BME280;67251;50.844;7.978;2023-03-01T09:17:10;99739.72;;;7.88;34.70
77877;BME280;67251;50.844;7.978;2023-03-01T09:19:35;99737.84;;;7.81;34.99
77877;BME280;67251;50.844;7.978;2023-03-01T09:22:03;99734.81;;;8.26;34.31
77877;BME280;67251;50.844;7.978;2023-03-01T09:24:29;99728.31;;;9.66;32.35
77877;BME280;67251;50.844;7.978;2023-03-01T09:26:55;99733.47;;;9.67;31.36
77877;BME280;67251;50.844;7.978;2023-03-01T09:29:21;99734.69;;;8.68;33.71
77877;BME280;67251;50.844;7.978;2023-03-01T09:31:46;99733.66;;;9.10;32.57
77877;BME280;67251;50.844;7.978;2023-03-01T09:34:12;99731.59;;;10.38;30.96
77877;BME280;67251;50.844;7.978;2023-03-01T09:36:41;99724.16;;;10.26;30.89
77877;BME280;67251;50.844;7.978;2023-03-01T09:39:06;99726.69;;;9.88;31.59
77877;BME280;67251;50.844;7.978;2023-03-01T09:42:02;99714.50;;;9.93;31.18
77877;BME280;67251;50.844;7.978;2023-03-01T09:44:38;99711.16;;;10.45;30.30
77877;BME280;67251;50.844;7.978;2023-03-01T09:47:11;99710.63;;;10.50;30.53
77877;BME280;67251;50.844;7.978;2023-03-01T09:49:41;99712.56;;;10.79;29.64
77877;BME280;67251;50.844;7.978;2023-03-01T09:55:01;99702.41;;;9.75;31.72
77877;BME280;67251;50.844;7.978;2023-03-01T09:57:33;99709.41;;;9.36;31.48
77877;BME280;67251;50.844;7.978;2023-03-01T10:02:45;99701.25;;;10.31;30.48
77877;BME280;67251;50.844;7.978;2023-03-01T10:05:27;99698.19;;;10.57;29.13
77877;BME280;67251;50.844;7.978;2023-03-01T10:10:46;99700.28;;;10.24;29.78
77877;BME280;67251;50.844;7.978;2023-03-01T10:13:21;99682.84;;;10.51;29.65
77877;BME280;67251;50.844;7.978;2023-03-01T10:15:57;99674.66;;;11.20;28.50
77877;BME280;67251;50.844;7.978;2023-03-01T10:18:26;99670.03;;;11.43;28.31
77877;BME280;67251;50.844;7.978;2023-03-01T10:21:00;99687.75;;;10.62;29.10
77877;BME280;67251;50.844;7.978;2023-03-01T10:23:29;99670.81;;;10.32;28.60
77877;BME280;67251;50.844;7.978;2023-03-01T10:29:11;99668.72;;;10.42;28.88
77877;BME280;67251;50.844;7.978;2023-03-01T10:34:15;99653.13;;;10.00;29.46
77877;BME280;67251;50.844;7.978;2023-03-01T10:36:42;99654.91;;;9.06;30.17
77877;BME280;67251;50.844;7.978;2023-03-01T10:39:16;99667.75;;;7.80;32.88
77877;BME280;67251;50.844;7.978;2023-03-01T10:41:56;99664.31;;;8.69;31.81
77877;BME280;67251;50.844;7.978;2023-03-01T10:44:43;99658.44;;;9.46;31.11
77877;BME280;67251;50.844;7.978;2023-03-01T10:47:14;99646.91;;;9.77;30.32
77877;BME280;67251;50.844;7.978;2023-03-01T10:49:52;99656.09;;;10.05;30.35
77877;BME280;67251;50.844;7.978;2023-03-01T10:52:21;99655.50;;;9.95;30.31
77877;BME280;67251;50.844;7.978;2023-03-01T10:54:59;99640.47;;;9.94;30.37
77877;BME280;67251;50.844;7.978;2023-03-01T10:57:33;99638.97;;;10.60;29.85
77877;BME280;67251;50.844;7.978;2023-03-01T11:03:10;99638.50;;;10.34;29.39
77877;BME280;67251;50.844;7.978;2023-03-01T11:05:34;99626.34;;;10.08;30.07
77877;BME280;67251;50.844;7.978;2023-03-01T11:08:01;99620.59;;;9.34;30.53
77877;BME280;67251;50.844;7.978;2023-03-01T11:10:30;99626.03;;;8.38;32.23
77877;BME280;67251;50.844;7.978;2023-03-01T11:15:40;99621.00;;;8.10;32.86
77877;BME280;67251;50.844;7.978;2023-03-01T11:18:18;99629.00;;;8.10;33.05
77877;BME280;67251;50.844;7.978;2023-03-01T11:20:44;99629.50;;;8.06;33.31
77877;BME280;67251;50.844;7.978;2023-03-01T11:23:12;99618.34;;;8.10;32.94
77877;BME280;67251;50.844;7.978;2023-03-01T11:25:59;99615.00;;;8.57;31.96
77877;BME280;67251;50.844;7.978;2023-03-01T11:28:27;99618.34;;;8.51;31.02
77877;BME280;67251;50.844;7.978;2023-03-01T11:31:01;99604.00;;;8.36;32.12
77877;BME280;67251;50.844;7.978;2023-03-01T11:39:05;99585.66;;;7.76;32.39
77877;BME280;67251;50.844;7.978;2023-03-01T11:41:39;99594.50;;;7.92;31.83
77877;BME280;67251;50.844;7.978;2023-03-01T11:44:15;99576.34;;;7.63;32.32
77877;BME280;67251;50.844;7.978;2023-03-01T11:53:23;99570.84;;;7.65;32.30
77877;BME280;67251;50.844;7.978;2023-03-01T11:56:11;99566.13;;;7.42;32.51
77877;BME280;67251;50.844;7.978;2023-03-01T12:01:32;99569.13;;;6.55;34.24
77877;BME280;67251;50.844;7.978;2023-03-01T12:20:55;99559.09;;;5.97;34.85
77877;BME280;67251;50.844;7.978;2023-03-01T12:23:47;99547.22;;;6.09;34.58
77877;BME280;67251;50.844;7.978;2023-03-01T12:26:26;99546.50;;;6.25;33.90
77877;BME280;67251;50.844;7.978;2023-03-01T12:34:31;99547.09;;;5.93;35.26
77877;BME280;67251;50.844;7.978;2023-03-01T12:40:21;99535.78;;;5.90;33.73
77877;BME280;67251;50.844;7.978;2023-03-01T12:43:10;99523.72;;;5.96;33.91
77877;BME280;67251;50.844;7.978;2023-03-01T12:48:27;99509.41;;;6.49;33.80
77877;BME280;67251;50.844;7.978;2023-03-01T12:51:00;99512.47;;;6.62;33.57
77877;BME280;67251;50.844;7.978;2023-03-01T12:53:40;99501.28;;;6.85;34.09
77877;BME280;67251;50.844;7.978;2023-03-01T12:56:14;99502.34;;;7.08;34.63
77877;BME280;67251;50.844;7.978;2023-03-01T13:01:22;99494.22;;;6.68;33.42
77877;BME280;67251;50.844;7.978;2023-03-01T13:04:15;99489.56;;;6.61;33.80
77877;BME280;67251;50.844;7.978;2023-03-01T13:07:15;99489.66;;;6.94;33.93
77877;BME280;67251;50.844;7.978;2023-03-01T13:15:35;99479.91;;;7.19;30.75
77877;BME280;67251;50.844;7.978;2023-03-01T13:20:52;99471.09;;;7.18;30.27
77877;BME280;67251;50.844;7.978;2023-03-01T13:28:50;99473.69;;;6.94;30.90
77877;BME280;67251;50.844;7.978;2023-03-01T13:33:56;99463.59;;;7.14;31.43
77877;BME280;67251;50.844;7.978;2023-03-01T13:44:35;99435.19;;;7.63;30.66
77877;BME280;67251;50.844;7.978;2023-03-01T13:52:45;99446.31;;;7.26;30.98
77877;BME280;67251;50.844;7.978;2023-03-01T13:57:41;99446.97;;;7.12;32.24
77877;BME280;67251;50.844;7.978;2023-03-01T14:00:31;99444.97;;;7.06;31.63
77877;BME280;67251;50.844;7.978;2023-03-01T14:03:04;99440.97;;;7.18;32.91
77877;BME280;67251;50.844;7.978;2023-03-01T14:05:31;99441.16;;;7.25;32.83
77877;BME280;67251;50.844;7.978;2023-03-01T14:07:56;99438.47;;;7.00;33.23
77877;BME280;67251;50.844;7.978;2023-03-01T14:10:21;99435.25;;;6.80;33.65
77877;BME280;67251;50.844;7.978;2023-03-01T14:12:55;99445.41;;;6.85;34.43
77877;BME280;67251;50.844;7.978;2023-03-01T14:15:29;99427.81;;;6.92;32.68
77877;BME280;67251;50.844;7.978;2023-03-01T14:18:14;99436.59;;;6.84;32.27
77877;BME280;67251;50.844;7.978;2023-03-01T14:20:44;99440.06;;;6.77;32.31
77877;BME280;67251;50.844;7.978;2023-03-01T14:23:22;99442.25;;;6.81;32.40
77877;BME280;67251;50.844;7.978;2023-03-01T14:25:53;99441.91;;;6.84;32.16
77877;BME280;67251;50.844;7.978;2023-03-01T14:28:24;99438.09;;;6.79;34.74
77877;BME280;67251;50.844;7.978;2023-03-01T14:31:01;99442.34;;;6.55;34.40
77877;BME280;67251;50.844;7.978;2023-03-01T14:33:35;99442.78;;;6.43;35.03
77877;BME280;67251;50.844;7.978;2023-03-01T14:36:09;99434.38;;;6.55;35.01
77877;BME280;67251;50.844;7.978;2023-03-01T14:38:40;99435.22;;;6.64;36.03
77877;BME280;67251;50.844;7.978;2023-03-01T14:41:18;99438.16;;;6.53;36.51
77877;BME280;67251;50.844;7.978;2023-03-01T14:43:49;99441.31;;;6.48;35.82
77877;BME280;67251;50.844;7.978;2023-03-01T14:46:19;99429.78;;;6.39;35.81
77877;BME280;67251;50.844;7.978;2023-03-01T14:48:49;99433.66;;;6.45;35.01
77877;BME280;67251;50.844;7.978;2023-03-01T14:51:15;99435.28;;;6.38;34.84
77877;BME280;67251;50.844;7.978;2023-03-01T14:53:41;99435.09;;;6.31;35.24
77877;BME280;67251;50.844;7.978;2023-03-01T14:56:13;99447.63;;;6.13;36.27
77877;BME280;67251;50.844;7.978;2023-03-01T14:58:39;99438.47;;;6.07;36.65
77877;BME280;67251;50.844;7.978;2023-03-01T15:01:04;99433.63;;;6.03;36.93
77877;BME280;67251;50.844;7.978;2023-03-01T15:03:33;99438.13;;;6.10;36.84